Tiwala — V2DX3 — position and weather

sailwx.info

Track history (hours):
 
Tides and Currents Weather Stations Pressure Air Temp Water Temp Dewpoint Dewpoint Depression Visibility Wind Speed Wind Dir Waves Ship Positions

Tiwala

Last reported at 2018-Feb-20 01:39 UTC. Time now 2018-Feb-20 03:53 UTC.
Position N 40°57' E 001°56'.

Length 107 m; draft 5.5 m.

Type: Ship. MMSI: 305364000.

Date/timePositionNaut miles runAvg speedWind from/ knotsBaromVisibWave heightAir tempDewpointWater temp
2018-Feb-20 01:39N 40°57' E 001°56'3 9.9
2018-Feb-20 01:20N 40°59' E 001°58'410.5
2018-Feb-20 00:57N 41°03' E 002°00'510.3
2018-Feb-20 00:30N 41°07' E 002°03'5 9.9
2018-Feb-20 00:00N 41°11' E 002°07'5 9.9
2018-Feb-19 23:30N 41°16' E 002°10'5 9.1
2018-Feb-19 23:00N 41°20' E 002°10'2 3.3
2018-Feb-19 22:30N 41°22' E 002°10'0 0.0
2018-Feb-19 21:58N 41°22' E 002°10'0 0.0
2018-Feb-19 21:22N 41°22' E 002°10'0 0.0
2018-Feb-19 20:58N 41°22' E 002°10'0 0.0
2018-Feb-19 20:28N 41°22' E 002°10'0 0.0
2018-Feb-19 19:58N 41°22' E 002°10'0 0.0
2018-Feb-19 19:28N 41°22' E 002°10'0 0.0
2018-Feb-19 18:58N 41°22' E 002°10'0 0.0
2018-Feb-19 18:16N 41°22' E 002°10'0 0.0
2018-Feb-19 17:58N 41°22' E 002°10'0 0.0
2018-Feb-19 17:28N 41°22' E 002°10'0 0.0
2018-Feb-19 16:58N 41°22' E 002°10'0 0.0
2018-Feb-19 16:28N 41°22' E 002°10'0 0.0
2018-Feb-19 15:58N 41°22' E 002°10'0 0.0
2018-Feb-19 15:22N 41°22' E 002°10'0 0.0
2018-Feb-19 14:58N 41°22' E 002°10'0 0.0
2018-Feb-19 14:19N 41°22' E 002°10'0 0.0
2018-Feb-19 13:58N 41°22' E 002°10'0 0.0
2018-Feb-19 13:28N 41°22' E 002°10'0 0.0
2018-Feb-19 12:58N 41°22' E 002°10'0 0.0
2018-Feb-19 12:28N 41°22' E 002°10'0 0.0
2018-Feb-19 10:22N 41°22' E 002°10'0 0.0
2018-Feb-19 09:55N 41°22' E 002°10'0 0.0
2018-Feb-19 09:28N 41°22' E 002°10'0 0.0
2018-Feb-18 23:49N 41°22' E 002°10'0 0.0
2018-Feb-18 23:28N 41°22' E 002°10'0 0.0
2018-Feb-18 22:58N 41°22' E 002°10'0 0.0
2018-Feb-18 22:28N 41°22' E 002°10'0 0.0
2018-Feb-18 21:58N 41°22' E 002°10'0 0.0
2018-Feb-18 21:25N 41°22' E 002°10'0 0.0
2018-Feb-18 20:58N 41°22' E 002°10'0 0.0
2018-Feb-18 20:29N 41°22' E 002°10'2 4.0
2018-Feb-18 20:00N 41°20' E 002°10'1 1.7
2018-Feb-18 19:29N 41°20' E 002°11'0 0.1
2018-Feb-18 18:59N 41°20' E 002°11'0 0.0
2018-Feb-18 18:29N 41°20' E 002°11'0 0.0
2018-Feb-18 17:59N 41°20' E 002°11'0 0.0
2018-Feb-18 17:29N 41°20' E 002°11'0 0.0
2018-Feb-18 16:59N 41°20' E 002°11'0 0.0
2018-Feb-18 16:29N 41°20' E 002°11'0 0.0
2018-Feb-18 15:56N 41°20' E 002°11'0 0.0
2018-Feb-18 15:29N 41°20' E 002°11'0 0.0
2018-Feb-18 14:59N 41°20' E 002°11'0 0.0
2018-Feb-18 14:29N 41°20' E 002°11'0 0.0
2018-Feb-18 13:59N 41°20' E 002°11'0 0.0
2018-Feb-18 13:29N 41°20' E 002°11'0 0.0
2018-Feb-18 12:59N 41°20' E 002°11'0 0.0
2018-Feb-18 12:29N 41°20' E 002°11'0 0.0
2018-Feb-18 11:59N 41°20' E 002°11'0 0.0
2018-Feb-18 11:29N 41°20' E 002°11'0 0.0
2018-Feb-18 10:59N 41°20' E 002°11'0 0.0
2018-Feb-18 10:29N 41°20' E 002°11'0 0.0
2018-Feb-18 09:59N 41°20' E 002°11'0 0.0
2018-Feb-18 09:29N 41°20' E 002°11'0 0.0
2018-Feb-18 08:56N 41°20' E 002°11'0 0.0
2018-Feb-18 08:29N 41°20' E 002°11'0 0.2
2018-Feb-18 07:59N 41°20' E 002°11'0 0.0
2018-Feb-18 07:29N 41°20' E 002°11'0 0.1
2018-Feb-18 06:59N 41°20' E 002°11'0 0.2
2018-Feb-18 06:29N 41°20' E 002°11'0 0.0
2018-Feb-18 05:59N 41°20' E 002°11'0 0.0
2018-Feb-18 05:29N 41°20' E 002°11'0 0.1
2018-Feb-18 04:59N 41°20' E 002°11'0 0.0
2018-Feb-18 04:29N 41°20' E 002°11'0 0.0
2018-Feb-18 03:59N 41°20' E 002°11'0 0.1
2018-Feb-18 03:29N 41°20' E 002°11'0 0.1
2018-Feb-18 02:59N 41°20' E 002°11'0 0.0
2018-Feb-18 02:29N 41°20' E 002°11'0 0.0
2018-Feb-18 01:59N 41°20' E 002°11'0 0.1
2018-Feb-18 01:29N 41°20' E 002°11'0 0.0
2018-Feb-18 00:59N 41°20' E 002°11'0 0.0
2018-Feb-18 00:29N 41°20' E 002°11'0 0.1
2018-Feb-17 23:59N 41°20' E 002°11'0 0.0
2018-Feb-17 23:29N 41°20' E 002°11'0 0.0
2018-Feb-17 22:59N 41°20' E 002°11'0 0.0
2018-Feb-17 22:29N 41°20' E 002°11'0 0.0
2018-Feb-17 21:59N 41°20' E 002°11'0 0.1
2018-Feb-17 21:29N 41°20' E 002°11'0 0.0
2018-Feb-17 20:59N 41°20' E 002°11'0 0.0
2018-Feb-17 20:29N 41°20' E 002°11'0 0.0
2018-Feb-17 19:59N 41°20' E 002°11'0 0.0
2018-Feb-17 19:29N 41°20' E 002°11'0 0.0
2018-Feb-17 18:59N 41°20' E 002°11'0 0.0
2018-Feb-17 18:29N 41°20' E 002°11'0 0.0
2018-Feb-17 17:59N 41°20' E 002°11'0 0.0
2018-Feb-17 17:29N 41°20' E 002°11'0 0.0
2018-Feb-17 16:59N 41°20' E 002°11'0 0.0
2018-Feb-17 16:29N 41°20' E 002°11'0 0.0
2018-Feb-17 15:59N 41°20' E 002°11'0 0.0
2018-Feb-17 15:29N 41°20' E 002°11'0 0.0
2018-Feb-17 14:59N 41°20' E 002°11'0 0.0
2018-Feb-17 14:29N 41°20' E 002°11'0 0.0
2018-Feb-17 13:59N 41°20' E 002°11'0 0.0
2018-Feb-17 13:29N 41°20' E 002°11'0 0.0
2018-Feb-17 12:59N 41°20' E 002°11'0 0.1
2018-Feb-17 12:29N 41°20' E 002°11'0 0.0
2018-Feb-17 11:59N 41°20' E 002°11'0 0.1
2018-Feb-17 11:29N 41°20' E 002°11'0 0.2
2018-Feb-17 10:59N 41°20' E 002°11'0 0.0
2018-Feb-17 10:29N 41°20' E 002°11'0 0.1
2018-Feb-17 09:59N 41°20' E 002°11'0 0.0
2018-Feb-17 09:29N 41°20' E 002°11'0 0.0
2018-Feb-17 08:59N 41°20' E 002°11'0 0.0
2018-Feb-17 08:29N 41°20' E 002°11'0 0.0
2018-Feb-17 03:29N 41°20' E 002°11'0 0.0
2018-Feb-17 02:59N 41°20' E 002°11'0 0.0
2018-Feb-17 02:29N 41°20' E 002°11'0 0.0
2018-Feb-17 01:59N 41°20' E 002°11'0 0.0
2018-Feb-17 01:29N 41°20' E 002°11'0 0.0
2018-Feb-17 00:59N 41°20' E 002°11'0 0.0
2018-Feb-17 00:29N 41°20' E 002°11'0 0.0
2018-Feb-16 23:59N 41°20' E 002°11'0 0.0
2018-Feb-16 23:29N 41°20' E 002°11'0 0.0
2018-Feb-16 22:59N 41°20' E 002°11'0 0.1
2018-Feb-16 22:29N 41°20' E 002°11'0 0.0
2018-Feb-16 21:59N 41°20' E 002°11'0 0.1
2018-Feb-16 21:29N 41°20' E 002°11'0 0.0
2018-Feb-16 20:59N 41°20' E 002°11'0 0.0
2018-Feb-16 20:29N 41°20' E 002°11'0 0.0
2018-Feb-16 19:56N 41°20' E 002°11'0 0.0
2018-Feb-16 19:29N 41°20' E 002°11'0 0.0
2018-Feb-16 18:59N 41°20' E 002°11'0 0.0
2018-Feb-16 18:29N 41°20' E 002°11'0 0.0
2018-Feb-16 17:59N 41°20' E 002°11'0 0.0
2018-Feb-16 17:26N 41°20' E 002°11'0 0.1
2018-Feb-16 16:59N 41°20' E 002°11'0 0.0
2018-Feb-16 16:23N 41°20' E 002°11'0 0.0
2018-Feb-16 15:59N 41°20' E 002°11'0 0.0
2018-Feb-16 15:29N 41°20' E 002°11'0 0.0
2018-Feb-16 14:59N 41°20' E 002°11'0 0.0
2018-Feb-16 14:29N 41°20' E 002°11'0 0.0
2018-Feb-16 13:59N 41°20' E 002°11'0 0.0
2018-Feb-16 13:29N 41°20' E 002°11'0 0.1
2018-Feb-16 12:59N 41°20' E 002°11'0 0.0
2018-Feb-16 12:29N 41°20' E 002°11'0 0.0
2018-Feb-16 11:59N 41°20' E 002°11'0 0.0
2018-Feb-16 11:29N 41°20' E 002°11'0 0.0
2018-Feb-16 10:59N 41°20' E 002°11'0 0.0
2018-Feb-16 10:29N 41°20' E 002°11'0 0.0
2018-Feb-16 09:59N 41°20' E 002°11'0 0.0
2018-Feb-16 09:29N 41°20' E 002°11'0 0.1
2018-Feb-16 08:59N 41°20' E 002°11'0 0.0
2018-Feb-16 08:29N 41°20' E 002°11'0 0.0
2018-Feb-16 07:59N 41°20' E 002°11'0 0.1
2018-Feb-16 07:29N 41°20' E 002°11'0 0.0
2018-Feb-16 06:59N 41°20' E 002°11'0 0.0
2018-Feb-16 06:29N 41°20' E 002°11'0 0.0
2018-Feb-16 05:59N 41°20' E 002°11'0 0.0
2018-Feb-16 05:29N 41°20' E 002°11'0 0.0
2018-Feb-16 04:53N 41°20' E 002°11'0 0.0
2018-Feb-16 04:29N 41°20' E 002°11'0 0.0
2018-Feb-16 03:59N 41°20' E 002°11'0 0.0
2018-Feb-16 03:29N 41°20' E 002°11'0 0.1
2018-Feb-16 02:59N 41°20' E 002°11'0 0.0
2018-Feb-16 02:29N 41°20' E 002°11'0 0.0
2018-Feb-16 01:59N 41°20' E 002°11'0 0.0
2018-Feb-16 01:29N 41°20' E 002°11'0 0.0
2018-Feb-16 00:59N 41°20' E 002°11'0 0.1
2018-Feb-16 00:29N 41°20' E 002°11'0 0.0
2018-Feb-15 23:59N 41°20' E 002°11'0 0.0
2018-Feb-15 23:29N 41°20' E 002°11'0 0.0
2018-Feb-15 22:59N 41°20' E 002°11'0 0.0
2018-Feb-15 22:29N 41°20' E 002°11'0 0.0
2018-Feb-15 21:59N 41°20' E 002°11'0 0.0
2018-Feb-15 21:29N 41°20' E 002°11'0 0.1
2018-Feb-15 20:59N 41°20' E 002°11'0 0.0
2018-Feb-15 20:29N 41°20' E 002°11'0 0.0
2018-Feb-15 19:59N 41°20' E 002°11'0 0.0
2018-Feb-15 19:29N 41°20' E 002°11'0 0.0
2018-Feb-15 18:59N 41°20' E 002°11'0 0.0
2018-Feb-15 18:29N 41°20' E 002°11'0 0.1
2018-Feb-15 17:59N 41°20' E 002°11'0 0.1
2018-Feb-15 17:29N 41°20' E 002°11'0 0.1
2018-Feb-15 16:59N 41°20' E 002°11'0 0.0
2018-Feb-15 16:29N 41°20' E 002°11'0 0.0
2018-Feb-15 15:59N 41°20' E 002°11'0 0.0
2018-Feb-15 15:29N 41°20' E 002°11'0 0.0
2018-Feb-15 14:59N 41°20' E 002°11'0 0.0
2018-Feb-15 14:29N 41°20' E 002°11'0 0.0
2018-Feb-15 13:59N 41°20' E 002°11'0 0.0
2018-Feb-15 13:29N 41°20' E 002°11'0 0.0
2018-Feb-15 12:59N 41°20' E 002°11'0 0.0
2018-Feb-15 12:29N 41°20' E 002°11'0 0.0
2018-Feb-15 11:59N 41°20' E 002°11'0 0.0
2018-Feb-15 11:29N 41°20' E 002°11'0 0.0
2018-Feb-15 10:59N 41°20' E 002°11'0 0.0
2018-Feb-15 10:29N 41°20' E 002°11'0 0.2
2018-Feb-15 09:59N 41°20' E 002°11'0 0.1
2018-Feb-15 09:29N 41°20' E 002°11'0 0.1
2018-Feb-15 08:59N 41°20' E 002°11'0 0.0
2018-Feb-15 08:29N 41°20' E 002°11'0 0.1
2018-Feb-15 07:59N 41°20' E 002°11'0 0.0
2018-Feb-15 07:29N 41°20' E 002°11'0 0.0
2018-Feb-15 06:59N 41°20' E 002°11'0 0.0
2018-Feb-15 06:23N 41°20' E 002°11'0 0.0
2018-Feb-15 05:59N 41°20' E 002°11'0 0.0
2018-Feb-15 05:29N 41°20' E 002°11'0 0.0
2018-Feb-15 04:59N 41°20' E 002°11'0 0.1
2018-Feb-15 04:29N 41°20' E 002°11'0 0.0
2018-Feb-15 03:59N 41°20' E 002°11'0 0.0
2018-Feb-15 03:29N 41°20' E 002°11'0 0.1
2018-Feb-15 02:59N 41°20' E 002°11'0 0.0
2018-Feb-15 02:29N 41°20' E 002°11'0 0.0
2018-Feb-15 01:56N 41°20' E 002°11'0 0.0
2018-Feb-15 01:29N 41°20' E 002°11'0 0.0
2018-Feb-15 00:59N 41°20' E 002°11'0 0.0
2018-Feb-15 00:29N 41°20' E 002°11'0 0.0
2018-Feb-14 23:59N 41°20' E 002°11'0 0.0
2018-Feb-14 23:29N 41°20' E 002°11'0 0.0
2018-Feb-14 22:59N 41°20' E 002°11'0 0.0
2018-Feb-14 22:29N 41°20' E 002°11'0 0.0
2018-Feb-14 21:59N 41°20' E 002°11'0 0.0
2018-Feb-14 21:29N 41°20' E 002°11'0 0.0
2018-Feb-14 20:59N 41°20' E 002°11'0 0.0
2018-Feb-14 20:29N 41°20' E 002°11'0 0.0
2018-Feb-14 19:59N 41°20' E 002°11'0 0.0
2018-Feb-14 19:29N 41°20' E 002°11'0 0.0
2018-Feb-14 18:59N 41°20' E 002°11'0 0.0
2018-Feb-14 18:29N 41°20' E 002°11'0 0.0
2018-Feb-14 17:59N 41°20' E 002°11'0 0.0
2018-Feb-14 17:29N 41°20' E 002°11'0 0.0
2018-Feb-14 16:59N 41°20' E 002°11'0 0.1
2018-Feb-14 16:29N 41°20' E 002°11'0 0.0
2018-Feb-14 15:59N 41°20' E 002°11'0 0.0
2018-Feb-14 15:29N 41°20' E 002°11'0 0.0
2018-Feb-14 14:59N 41°20' E 002°11'0 0.0
2018-Feb-14 14:29N 41°20' E 002°11'0 0.0
2018-Feb-14 13:59N 41°20' E 002°11'0 0.0
2018-Feb-14 13:29N 41°20' E 002°11'0 0.0
2018-Feb-14 12:59N 41°20' E 002°11'0 0.0
2018-Feb-14 12:29N 41°20' E 002°11'0 0.0
2018-Feb-14 11:59N 41°20' E 002°11'0 0.0
2018-Feb-14 11:29N 41°20' E 002°11'0 0.0
2018-Feb-14 10:59N 41°20' E 002°11'0 0.1
2018-Feb-14 10:29N 41°20' E 002°11'0 0.1
2018-Feb-14 09:59N 41°20' E 002°11'0 0.0
2018-Feb-14 09:29N 41°20' E 002°11'0 0.0
2018-Feb-14 08:59N 41°20' E 002°11'0 0.1
2018-Feb-14 08:29N 41°20' E 002°11'0 0.0
2018-Feb-14 07:59N 41°20' E 002°11'0 0.1
2018-Feb-14 07:29N 41°20' E 002°11'0 0.0
2018-Feb-14 06:59N 41°20' E 002°11'0 0.0
2018-Feb-14 06:29N 41°20' E 002°11'0 0.0
2018-Feb-14 05:59N 41°20' E 002°11'0 0.1
2018-Feb-14 05:29N 41°20' E 002°11'0 0.0
2018-Feb-14 04:59N 41°20' E 002°11'0 0.0
2018-Feb-14 04:29N 41°20' E 002°11'0 0.0
2018-Feb-14 03:59N 41°20' E 002°11'0 0.1
2018-Feb-14 03:29N 41°20' E 002°11'0 0.0
2018-Feb-14 02:59N 41°20' E 002°11'0 0.1
2018-Feb-14 02:29N 41°20' E 002°11'0 0.1
2018-Feb-14 01:59N 41°20' E 002°11'0 0.1
2018-Feb-14 01:29N 41°20' E 002°11'0 0.0
2018-Feb-14 00:59N 41°20' E 002°11'0 0.0
2018-Feb-14 00:29N 41°20' E 002°11'0 0.1
2018-Feb-13 23:59N 41°20' E 002°11'0 0.0
2018-Feb-13 23:29N 41°20' E 002°11'0 0.0
2018-Feb-13 22:59N 41°20' E 002°11'0 0.0
2018-Feb-13 22:29N 41°20' E 002°11'0 0.1
2018-Feb-13 21:59N 41°20' E 002°11'0 0.1
2018-Feb-13 21:26N 41°20' E 002°11'0 0.0
2018-Feb-13 20:59N 41°20' E 002°11'0 0.0
2018-Feb-13 20:29N 41°20' E 002°11'0 0.0
2018-Feb-13 19:59N 41°20' E 002°11'0 0.0
2018-Feb-13 19:29N 41°20' E 002°11'1 2.8
2018-Feb-13 19:00N 41°19' E 002°11'2 5.0
2018-Feb-13 18:30N 41°21' E 002°10'0 0.6
2018-Feb-13 17:45N 41°22' E 002°10'0 0.0
2018-Feb-13 17:30N 41°22' E 002°10'0 0.0
2018-Feb-13 16:54N 41°22' E 002°10'0 0.0
2018-Feb-13 16:30N 41°22' E 002°10'0 0.0
2018-Feb-13 16:00N 41°22' E 002°10'0 0.0
2018-Feb-13 15:27N 41°22' E 002°10'0 0.0
2018-Feb-13 14:57N 41°22' E 002°10'0 0.0
2018-Feb-13 14:24N 41°22' E 002°10'0 0.0
2018-Feb-13 13:54N 41°22' E 002°10'0 0.0
2018-Feb-13 13:00N 41°22' E 002°10'0 0.0
2018-Feb-13 12:27N 41°22' E 002°10'0 0.0
2018-Feb-13 11:57N 41°22' E 002°10'0 0.0
2018-Feb-13 11:30N 41°22' E 002°10'0 0.0
2018-Feb-13 11:00N 41°22' E 002°10'0 0.0
2018-Feb-13 10:27N 41°22' E 002°10'0 0.0
2018-Feb-13 10:00N 41°22' E 002°10'0 0.0
2018-Feb-13 09:30N 41°22' E 002°10'0 0.0
2018-Feb-13 09:00N 41°22' E 002°10'0 0.0
2018-Feb-13 08:30N 41°22' E 002°10'0 0.0
2018-Feb-13 08:00N 41°22' E 002°10'0 0.0
2018-Feb-13 07:18N 41°22' E 002°10'0 0.0
2018-Feb-13 06:57N 41°22' E 002°10'0 0.0
2018-Feb-13 06:30N 41°22' E 002°10'0 0.0
2018-Feb-13 06:00N 41°22' E 002°10'0 0.0
2018-Feb-13 05:30N 41°22' E 002°10'0 0.0
2018-Feb-13 05:00N 41°22' E 002°10'0 0.0
2018-Feb-13 04:30N 41°22' E 002°10'0 0.0
2018-Feb-13 04:00N 41°22' E 002°10'0 0.0
2018-Feb-13 03:30N 41°22' E 002°10'0 0.0
2018-Feb-13 03:00N 41°22' E 002°10'0 0.0
2018-Feb-13 02:30N 41°22' E 002°10'0 0.0
2018-Feb-13 02:00N 41°22' E 002°10'0 0.0
2018-Feb-13 01:30N 41°22' E 002°10'0 0.0
2018-Feb-13 01:00N 41°22' E 002°10'0 0.0
2018-Feb-13 00:30N 41°22' E 002°10'0 0.0
2018-Feb-13 00:00N 41°22' E 002°10'0 0.0
2018-Feb-12 23:30N 41°22' E 002°10'0 0.0
2018-Feb-12 23:00N 41°22' E 002°10'0 0.0
2018-Feb-12 22:30N 41°22' E 002°10'0 0.0
2018-Feb-12 22:00N 41°22' E 002°10'0 0.0
2018-Feb-12 21:30N 41°22' E 002°10'0 0.0
2018-Feb-12 21:00N 41°22' E 002°10'0 0.0
2018-Feb-12 20:30N 41°22' E 002°10'0 0.0
2018-Feb-12 20:00N 41°22' E 002°10'0 0.0
2018-Feb-12 19:30N 41°22' E 002°10'0 0.0
2018-Feb-12 19:00N 41°22' E 002°10'0 0.0
2018-Feb-12 18:30N 41°22' E 002°10'0 0.0
2018-Feb-12 18:00N 41°22' E 002°10'0 0.0
2018-Feb-12 17:30N 41°22' E 002°10'0 0.0
2018-Feb-12 17:00N 41°22' E 002°10'0 0.0
2018-Feb-12 16:30N 41°22' E 002°10'0 0.0
2018-Feb-12 16:00N 41°22' E 002°10'0 0.0
2018-Feb-12 15:09N 41°22' E 002°10'0 0.0
2018-Feb-12 15:00N 41°22' E 002°10'0 0.0
2018-Feb-12 14:30N 41°22' E 002°10'0 0.0
2018-Feb-12 14:00N 41°22' E 002°10'0 0.0
2018-Feb-12 13:30N 41°22' E 002°10'0 0.0
2018-Feb-12 13:00N 41°22' E 002°10'0 0.0
2018-Feb-12 12:30N 41°22' E 002°10'0 0.0
2018-Feb-12 12:00N 41°22' E 002°10'0 0.0
2018-Feb-12 11:30N 41°22' E 002°10'0 0.0
2018-Feb-12 11:00N 41°22' E 002°10'0 0.0
2018-Feb-12 10:30N 41°22' E 002°10'0 0.0
2018-Feb-12 10:00N 41°22' E 002°10'0 0.0
2018-Feb-12 09:30N 41°22' E 002°10'0 0.0
2018-Feb-12 08:57N 41°22' E 002°10'0 0.0
2018-Feb-12 08:27N 41°22' E 002°10'0 0.0
2018-Feb-12 07:57N 41°22' E 002°10'0 0.0
2018-Feb-12 07:27N 41°22' E 002°10'0 0.0
2018-Feb-12 06:57N 41°22' E 002°10'0 0.0
2018-Feb-12 04:33N 41°22' E 002°10'0 0.0
2018-Feb-12 04:09N 41°22' E 002°10'0 0.0
2018-Feb-12 03:57N 41°22' E 002°10'0 0.0
2018-Feb-12 03:30N 41°22' E 002°10'0 0.0
2018-Feb-12 03:00N 41°22' E 002°10'0 0.0
2018-Feb-12 02:27N 41°22' E 002°10'0 0.0
2018-Feb-12 02:00N 41°22' E 002°10'0 0.0
2018-Feb-12 01:30N 41°22' E 002°10'0 0.0
2018-Feb-12 01:00N 41°22' E 002°10'0 0.0
2018-Feb-12 00:27N 41°22' E 002°10'0 0.0
2018-Feb-12 00:00N 41°22' E 002°10'0 0.0
2018-Feb-11 23:27N 41°22' E 002°10'0 0.0
2018-Feb-11 23:00N 41°22' E 002°10'0 0.0
2018-Feb-11 22:30N 41°22' E 002°10'0 0.0
2018-Feb-11 21:57N 41°22' E 002°10'0 0.0
2018-Feb-11 21:30N 41°22' E 002°10'0 0.0
2018-Feb-11 21:00N 41°22' E 002°10'0 0.0
2018-Feb-11 20:00N 41°22' E 002°10'0 0.0
2018-Feb-11 19:21N 41°22' E 002°10'0 0.0
2018-Feb-11 18:57N 41°22' E 002°10'0 0.0
2018-Feb-11 18:30N 41°22' E 002°10'0 0.0
2018-Feb-11 18:00N 41°22' E 002°10'0 0.0
2018-Feb-11 17:27N 41°22' E 002°10'0 0.0
2018-Feb-11 17:00N 41°22' E 002°10'0 0.0
2018-Feb-11 16:30N 41°22' E 002°10'0 0.0
2018-Feb-11 15:57N 41°22' E 002°10'0 0.0
2018-Feb-11 15:30N 41°22' E 002°10'0 0.0
2018-Feb-11 15:00N 41°22' E 002°10'0 0.0
2018-Feb-11 14:30N 41°22' E 002°10'0 0.0
2018-Feb-11 14:00N 41°22' E 002°10'0 0.0
2018-Feb-11 13:30N 41°22' E 002°10'0 0.0
2018-Feb-11 12:57N 41°22' E 002°10'0 0.0
2018-Feb-11 12:18N 41°22' E 002°10'0 0.0
2018-Feb-11 12:00N 41°22' E 002°10'0 0.0
2018-Feb-11 11:30N 41°22' E 002°10'0 0.1
2018-Feb-11 11:00N 41°22' E 002°10'3 5.6
2018-Feb-11 10:30N 41°19' E 002°10'3 6.5
2018-Feb-11 10:00N 41°16' E 002°12'5 9.6
2018-Feb-11 09:30N 41°12' E 002°17'5 9.9
2018-Feb-11 09:00N 41°08' E 002°21'  
Track history (hours):
 
Tides and Currents Weather Stations Pressure Air Temp Water Temp Dewpoint Dewpoint Depression Visibility Wind Speed Wind Dir Waves Ship Positions

Tiwala

Last reported at 2018-Feb-20 01:39 UTC. Time now 2018-Feb-20 03:53 UTC.
Position N 40°57' E 001°56'.

Length 107 m; draft 5.5 m.

Type: Ship. MMSI: 305364000.

Date/timePositionNaut miles runAvg speedWind from/ knotsBaromVisibWave heightAir tempDewpointWater temp
2018-Feb-20 01:39N 40°57' E 001°56'3 9.9
2018-Feb-20 01:20N 40°59' E 001°58'410.5
2018-Feb-20 00:57N 41°03' E 002°00'510.3
2018-Feb-20 00:30N 41°07' E 002°03'5 9.9
2018-Feb-20 00:00N 41°11' E 002°07'5 9.9
2018-Feb-19 23:30N 41°16' E 002°10'5 9.1
2018-Feb-19 23:00N 41°20' E 002°10'2 3.3
2018-Feb-19 22:30N 41°22' E 002°10'0 0.0
2018-Feb-19 21:58N 41°22' E 002°10'0 0.0
2018-Feb-19 21:22N 41°22' E 002°10'0 0.0
2018-Feb-19 20:58N 41°22' E 002°10'0 0.0
2018-Feb-19 20:28N 41°22' E 002°10'0 0.0
2018-Feb-19 19:58N 41°22' E 002°10'0 0.0
2018-Feb-19 19:28N 41°22' E 002°10'0 0.0
2018-Feb-19 18:58N 41°22' E 002°10'0 0.0
2018-Feb-19 18:16N 41°22' E 002°10'0 0.0
2018-Feb-19 17:58N 41°22' E 002°10'0 0.0
2018-Feb-19 17:28N 41°22' E 002°10'0 0.0
2018-Feb-19 16:58N 41°22' E 002°10'0 0.0
2018-Feb-19 16:28N 41°22' E 002°10'0 0.0
2018-Feb-19 15:58N 41°22' E 002°10'0 0.0
2018-Feb-19 15:22N 41°22' E 002°10'0 0.0
2018-Feb-19 14:58N 41°22' E 002°10'0 0.0
2018-Feb-19 14:19N 41°22' E 002°10'0 0.0
2018-Feb-19 13:58N 41°22' E 002°10'0 0.0
2018-Feb-19 13:28N 41°22' E 002°10'0 0.0
2018-Feb-19 12:58N 41°22' E 002°10'0 0.0
2018-Feb-19 12:28N 41°22' E 002°10'0 0.0
2018-Feb-19 10:22N 41°22' E 002°10'0 0.0
2018-Feb-19 09:55N 41°22' E 002°10'0 0.0
2018-Feb-19 09:28N 41°22' E 002°10'0 0.0
2018-Feb-18 23:49N 41°22' E 002°10'0 0.0
2018-Feb-18 23:28N 41°22' E 002°10'0 0.0
2018-Feb-18 22:58N 41°22' E 002°10'0 0.0
2018-Feb-18 22:28N 41°22' E 002°10'0 0.0
2018-Feb-18 21:58N 41°22' E 002°10'0 0.0
2018-Feb-18 21:25N 41°22' E 002°10'0 0.0
2018-Feb-18 20:58N 41°22' E 002°10'0 0.0
2018-Feb-18 20:29N 41°22' E 002°10'2 4.0
2018-Feb-18 20:00N 41°20' E 002°10'1 1.7
2018-Feb-18 19:29N 41°20' E 002°11'0 0.1
2018-Feb-18 18:59N 41°20' E 002°11'0 0.0
2018-Feb-18 18:29N 41°20' E 002°11'0 0.0
2018-Feb-18 17:59N 41°20' E 002°11'0 0.0
2018-Feb-18 17:29N 41°20' E 002°11'0 0.0
2018-Feb-18 16:59N 41°20' E 002°11'0 0.0
2018-Feb-18 16:29N 41°20' E 002°11'0 0.0
2018-Feb-18 15:56N 41°20' E 002°11'0 0.0
2018-Feb-18 15:29N 41°20' E 002°11'0 0.0
2018-Feb-18 14:59N 41°20' E 002°11'0 0.0
2018-Feb-18 14:29N 41°20' E 002°11'0 0.0
2018-Feb-18 13:59N 41°20' E 002°11'0 0.0
2018-Feb-18 13:29N 41°20' E 002°11'0 0.0
2018-Feb-18 12:59N 41°20' E 002°11'0 0.0
2018-Feb-18 12:29N 41°20' E 002°11'0 0.0
2018-Feb-18 11:59N 41°20' E 002°11'0 0.0
2018-Feb-18 11:29N 41°20' E 002°11'0 0.0
2018-Feb-18 10:59N 41°20' E 002°11'0 0.0
2018-Feb-18 10:29N 41°20' E 002°11'0 0.0
2018-Feb-18 09:59N 41°20' E 002°11'0 0.0
2018-Feb-18 09:29N 41°20' E 002°11'0 0.0
2018-Feb-18 08:56N 41°20' E 002°11'0 0.0
2018-Feb-18 08:29N 41°20' E 002°11'0 0.2
2018-Feb-18 07:59N 41°20' E 002°11'0 0.0
2018-Feb-18 07:29N 41°20' E 002°11'0 0.1
2018-Feb-18 06:59N 41°20' E 002°11'0 0.2
2018-Feb-18 06:29N 41°20' E 002°11'0 0.0
2018-Feb-18 05:59N 41°20' E 002°11'0 0.0
2018-Feb-18 05:29N 41°20' E 002°11'0 0.1
2018-Feb-18 04:59N 41°20' E 002°11'0 0.0
2018-Feb-18 04:29N 41°20' E 002°11'0 0.0
2018-Feb-18 03:59N 41°20' E 002°11'0 0.1
2018-Feb-18 03:29N 41°20' E 002°11'0 0.1
2018-Feb-18 02:59N 41°20' E 002°11'0 0.0
2018-Feb-18 02:29N 41°20' E 002°11'0 0.0
2018-Feb-18 01:59N 41°20' E 002°11'0 0.1
2018-Feb-18 01:29N 41°20' E 002°11'0 0.0
2018-Feb-18 00:59N 41°20' E 002°11'0 0.0
2018-Feb-18 00:29N 41°20' E 002°11'0 0.1
2018-Feb-17 23:59N 41°20' E 002°11'0 0.0
2018-Feb-17 23:29N 41°20' E 002°11'0 0.0
2018-Feb-17 22:59N 41°20' E 002°11'0 0.0
2018-Feb-17 22:29N 41°20' E 002°11'0 0.0
2018-Feb-17 21:59N 41°20' E 002°11'0 0.1
2018-Feb-17 21:29N 41°20' E 002°11'0 0.0
2018-Feb-17 20:59N 41°20' E 002°11'0 0.0
2018-Feb-17 20:29N 41°20' E 002°11'0 0.0
2018-Feb-17 19:59N 41°20' E 002°11'0 0.0
2018-Feb-17 19:29N 41°20' E 002°11'0 0.0
2018-Feb-17 18:59N 41°20' E 002°11'0 0.0
2018-Feb-17 18:29N 41°20' E 002°11'0 0.0
2018-Feb-17 17:59N 41°20' E 002°11'0 0.0
2018-Feb-17 17:29N 41°20' E 002°11'0 0.0
2018-Feb-17 16:59N 41°20' E 002°11'0 0.0
2018-Feb-17 16:29N 41°20' E 002°11'0 0.0
2018-Feb-17 15:59N 41°20' E 002°11'0 0.0
2018-Feb-17 15:29N 41°20' E 002°11'0 0.0
2018-Feb-17 14:59N 41°20' E 002°11'0 0.0
2018-Feb-17 14:29N 41°20' E 002°11'0 0.0
2018-Feb-17 13:59N 41°20' E 002°11'0 0.0
2018-Feb-17 13:29N 41°20' E 002°11'0 0.0
2018-Feb-17 12:59N 41°20' E 002°11'0 0.1
2018-Feb-17 12:29N 41°20' E 002°11'0 0.0
2018-Feb-17 11:59N 41°20' E 002°11'0 0.1
2018-Feb-17 11:29N 41°20' E 002°11'0 0.2
2018-Feb-17 10:59N 41°20' E 002°11'0 0.0
2018-Feb-17 10:29N 41°20' E 002°11'0 0.1
2018-Feb-17 09:59N 41°20' E 002°11'0 0.0
2018-Feb-17 09:29N 41°20' E 002°11'0 0.0
2018-Feb-17 08:59N 41°20' E 002°11'0 0.0
2018-Feb-17 08:29N 41°20' E 002°11'0 0.0
2018-Feb-17 03:29N 41°20' E 002°11'0 0.0
2018-Feb-17 02:59N 41°20' E 002°11'0 0.0
2018-Feb-17 02:29N 41°20' E 002°11'0 0.0
2018-Feb-17 01:59N 41°20' E 002°11'0 0.0
2018-Feb-17 01:29N 41°20' E 002°11'0 0.0
2018-Feb-17 00:59N 41°20' E 002°11'0 0.0
2018-Feb-17 00:29N 41°20' E 002°11'0 0.0
2018-Feb-16 23:59N 41°20' E 002°11'0 0.0
2018-Feb-16 23:29N 41°20' E 002°11'0 0.0
2018-Feb-16 22:59N 41°20' E 002°11'0 0.1
2018-Feb-16 22:29N 41°20' E 002°11'0 0.0
2018-Feb-16 21:59N 41°20' E 002°11'0 0.1
2018-Feb-16 21:29N 41°20' E 002°11'0 0.0
2018-Feb-16 20:59N 41°20' E 002°11'0 0.0
2018-Feb-16 20:29N 41°20' E 002°11'0 0.0
2018-Feb-16 19:56N 41°20' E 002°11'0 0.0
2018-Feb-16 19:29N 41°20' E 002°11'0 0.0
2018-Feb-16 18:59N 41°20' E 002°11'0 0.0
2018-Feb-16 18:29N 41°20' E 002°11'0 0.0
2018-Feb-16 17:59N 41°20' E 002°11'0 0.0
2018-Feb-16 17:26N 41°20' E 002°11'0 0.1
2018-Feb-16 16:59N 41°20' E 002°11'0 0.0
2018-Feb-16 16:23N 41°20' E 002°11'0 0.0
2018-Feb-16 15:59N 41°20' E 002°11'0 0.0
2018-Feb-16 15:29N 41°20' E 002°11'0 0.0
2018-Feb-16 14:59N 41°20' E 002°11'0 0.0
2018-Feb-16 14:29N 41°20' E 002°11'0 0.0
2018-Feb-16 13:59N 41°20' E 002°11'0 0.0
2018-Feb-16 13:29N 41°20' E 002°11'0 0.1
2018-Feb-16 12:59N 41°20' E 002°11'0 0.0
2018-Feb-16 12:29N 41°20' E 002°11'0 0.0
2018-Feb-16 11:59N 41°20' E 002°11'0 0.0
2018-Feb-16 11:29N 41°20' E 002°11'0 0.0
2018-Feb-16 10:59N 41°20' E 002°11'0 0.0
2018-Feb-16 10:29N 41°20' E 002°11'0 0.0
2018-Feb-16 09:59N 41°20' E 002°11'0 0.0
2018-Feb-16 09:29N 41°20' E 002°11'0 0.1
2018-Feb-16 08:59N 41°20' E 002°11'0 0.0
2018-Feb-16 08:29N 41°20' E 002°11'0 0.0
2018-Feb-16 07:59N 41°20' E 002°11'0 0.1
2018-Feb-16 07:29N 41°20' E 002°11'0 0.0
2018-Feb-16 06:59N 41°20' E 002°11'0 0.0
2018-Feb-16 06:29N 41°20' E 002°11'0 0.0
2018-Feb-16 05:59N 41°20' E 002°11'0 0.0
2018-Feb-16 05:29N 41°20' E 002°11'0 0.0
2018-Feb-16 04:53N 41°20' E 002°11'0 0.0
2018-Feb-16 04:29N 41°20' E 002°11'0 0.0
2018-Feb-16 03:59N 41°20' E 002°11'0 0.0
2018-Feb-16 03:29N 41°20' E 002°11'0 0.1
2018-Feb-16 02:59N 41°20' E 002°11'0 0.0
2018-Feb-16 02:29N 41°20' E 002°11'0 0.0
2018-Feb-16 01:59N 41°20' E 002°11'0 0.0
2018-Feb-16 01:29N 41°20' E 002°11'0 0.0
2018-Feb-16 00:59N 41°20' E 002°11'0 0.1
2018-Feb-16 00:29N 41°20' E 002°11'0 0.0
2018-Feb-15 23:59N 41°20' E 002°11'0 0.0
2018-Feb-15 23:29N 41°20' E 002°11'0 0.0
2018-Feb-15 22:59N 41°20' E 002°11'0 0.0
2018-Feb-15 22:29N 41°20' E 002°11'0 0.0
2018-Feb-15 21:59N 41°20' E 002°11'0 0.0
2018-Feb-15 21:29N 41°20' E 002°11'0 0.1
2018-Feb-15 20:59N 41°20' E 002°11'0 0.0
2018-Feb-15 20:29N 41°20' E 002°11'0 0.0
2018-Feb-15 19:59N 41°20' E 002°11'0 0.0
2018-Feb-15 19:29N 41°20' E 002°11'0 0.0
2018-Feb-15 18:59N 41°20' E 002°11'0 0.0
2018-Feb-15 18:29N 41°20' E 002°11'0 0.1
2018-Feb-15 17:59N 41°20' E 002°11'0 0.1
2018-Feb-15 17:29N 41°20' E 002°11'0 0.1
2018-Feb-15 16:59N 41°20' E 002°11'0 0.0
2018-Feb-15 16:29N 41°20' E 002°11'0 0.0
2018-Feb-15 15:59N 41°20' E 002°11'0 0.0
2018-Feb-15 15:29N 41°20' E 002°11'0 0.0
2018-Feb-15 14:59N 41°20' E 002°11'0 0.0
2018-Feb-15 14:29N 41°20' E 002°11'0 0.0
2018-Feb-15 13:59N 41°20' E 002°11'0 0.0
2018-Feb-15 13:29N 41°20' E 002°11'0 0.0
2018-Feb-15 12:59N 41°20' E 002°11'0 0.0
2018-Feb-15 12:29N 41°20' E 002°11'0 0.0
2018-Feb-15 11:59N 41°20' E 002°11'0 0.0
2018-Feb-15 11:29N 41°20' E 002°11'0 0.0
2018-Feb-15 10:59N 41°20' E 002°11'0 0.0
2018-Feb-15 10:29N 41°20' E 002°11'0 0.2
2018-Feb-15 09:59N 41°20' E 002°11'0 0.1
2018-Feb-15 09:29N 41°20' E 002°11'0 0.1
2018-Feb-15 08:59N 41°20' E 002°11'0 0.0
2018-Feb-15 08:29N 41°20' E 002°11'0 0.1
2018-Feb-15 07:59N 41°20' E 002°11'0 0.0
2018-Feb-15 07:29N 41°20' E 002°11'0 0.0
2018-Feb-15 06:59N 41°20' E 002°11'0 0.0
2018-Feb-15 06:23N 41°20' E 002°11'0 0.0
2018-Feb-15 05:59N 41°20' E 002°11'0 0.0
2018-Feb-15 05:29N 41°20' E 002°11'0 0.0
2018-Feb-15 04:59N 41°20' E 002°11'0 0.1
2018-Feb-15 04:29N 41°20' E 002°11'0 0.0
2018-Feb-15 03:59N 41°20' E 002°11'0 0.0
2018-Feb-15 03:29N 41°20' E 002°11'0 0.1
2018-Feb-15 02:59N 41°20' E 002°11'0 0.0
2018-Feb-15 02:29N 41°20' E 002°11'0 0.0
2018-Feb-15 01:56N 41°20' E 002°11'0 0.0
2018-Feb-15 01:29N 41°20' E 002°11'0 0.0
2018-Feb-15 00:59N 41°20' E 002°11'0 0.0
2018-Feb-15 00:29N 41°20' E 002°11'0 0.0
2018-Feb-14 23:59N 41°20' E 002°11'0 0.0
2018-Feb-14 23:29N 41°20' E 002°11'0 0.0
2018-Feb-14 22:59N 41°20' E 002°11'0 0.0
2018-Feb-14 22:29N 41°20' E 002°11'0 0.0
2018-Feb-14 21:59N 41°20' E 002°11'0 0.0
2018-Feb-14 21:29N 41°20' E 002°11'0 0.0
2018-Feb-14 20:59N 41°20' E 002°11'0 0.0
2018-Feb-14 20:29N 41°20' E 002°11'0 0.0
2018-Feb-14 19:59N 41°20' E 002°11'0 0.0
2018-Feb-14 19:29N 41°20' E 002°11'0 0.0
2018-Feb-14 18:59N 41°20' E 002°11'0 0.0
2018-Feb-14 18:29N 41°20' E 002°11'0 0.0
2018-Feb-14 17:59N 41°20' E 002°11'0 0.0
2018-Feb-14 17:29N 41°20' E 002°11'0 0.0
2018-Feb-14 16:59N 41°20' E 002°11'0 0.1
2018-Feb-14 16:29N 41°20' E 002°11'0 0.0
2018-Feb-14 15:59N 41°20' E 002°11'0 0.0
2018-Feb-14 15:29N 41°20' E 002°11'0 0.0
2018-Feb-14 14:59N 41°20' E 002°11'0 0.0
2018-Feb-14 14:29N 41°20' E 002°11'0 0.0
2018-Feb-14 13:59N 41°20' E 002°11'0 0.0
2018-Feb-14 13:29N 41°20' E 002°11'0 0.0
2018-Feb-14 12:59N 41°20' E 002°11'0 0.0
2018-Feb-14 12:29N 41°20' E 002°11'0 0.0
2018-Feb-14 11:59N 41°20' E 002°11'0 0.0
2018-Feb-14 11:29N 41°20' E 002°11'0 0.0
2018-Feb-14 10:59N 41°20' E 002°11'0 0.1
2018-Feb-14 10:29N 41°20' E 002°11'0 0.1
2018-Feb-14 09:59N 41°20' E 002°11'0 0.0
2018-Feb-14 09:29N 41°20' E 002°11'0 0.0
2018-Feb-14 08:59N 41°20' E 002°11'0 0.1
2018-Feb-14 08:29N 41°20' E 002°11'0 0.0
2018-Feb-14 07:59N 41°20' E 002°11'0 0.1
2018-Feb-14 07:29N 41°20' E 002°11'0 0.0
2018-Feb-14 06:59N 41°20' E 002°11'0 0.0
2018-Feb-14 06:29N 41°20' E 002°11'0 0.0
2018-Feb-14 05:59N 41°20' E 002°11'0 0.1
2018-Feb-14 05:29N 41°20' E 002°11'0 0.0
2018-Feb-14 04:59N 41°20' E 002°11'0 0.0
2018-Feb-14 04:29N 41°20' E 002°11'0 0.0
2018-Feb-14 03:59N 41°20' E 002°11'0 0.1
2018-Feb-14 03:29N 41°20' E 002°11'0 0.0
2018-Feb-14 02:59N 41°20' E 002°11'0 0.1
2018-Feb-14 02:29N 41°20' E 002°11'0 0.1
2018-Feb-14 01:59N 41°20' E 002°11'0 0.1
2018-Feb-14 01:29N 41°20' E 002°11'0 0.0
2018-Feb-14 00:59N 41°20' E 002°11'0 0.0
2018-Feb-14 00:29N 41°20' E 002°11'0 0.1
2018-Feb-13 23:59N 41°20' E 002°11'0 0.0
2018-Feb-13 23:29N 41°20' E 002°11'0 0.0
2018-Feb-13 22:59N 41°20' E 002°11'0 0.0
2018-Feb-13 22:29N 41°20' E 002°11'0 0.1
2018-Feb-13 21:59N 41°20' E 002°11'0 0.1
2018-Feb-13 21:26N 41°20' E 002°11'0 0.0
2018-Feb-13 20:59N 41°20' E 002°11'0 0.0
2018-Feb-13 20:29N 41°20' E 002°11'0 0.0
2018-Feb-13 19:59N 41°20' E 002°11'0 0.0
2018-Feb-13 19:29N 41°20' E 002°11'1 2.8
2018-Feb-13 19:00N 41°19' E 002°11'2 5.0
2018-Feb-13 18:30N 41°21' E 002°10'0 0.6
2018-Feb-13 17:45N 41°22' E 002°10'0 0.0
2018-Feb-13 17:30N 41°22' E 002°10'0 0.0
2018-Feb-13 16:54N 41°22' E 002°10'0 0.0
2018-Feb-13 16:30N 41°22' E 002°10'0 0.0
2018-Feb-13 16:00N 41°22' E 002°10'0 0.0
2018-Feb-13 15:27N 41°22' E 002°10'0 0.0
2018-Feb-13 14:57N 41°22' E 002°10'0 0.0
2018-Feb-13 14:24N 41°22' E 002°10'0 0.0
2018-Feb-13 13:54N 41°22' E 002°10'0 0.0
2018-Feb-13 13:00N 41°22' E 002°10'0 0.0
2018-Feb-13 12:27N 41°22' E 002°10'0 0.0
2018-Feb-13 11:57N 41°22' E 002°10'0 0.0
2018-Feb-13 11:30N 41°22' E 002°10'0 0.0
2018-Feb-13 11:00N 41°22' E 002°10'0 0.0
2018-Feb-13 10:27N 41°22' E 002°10'0 0.0
2018-Feb-13 10:00N 41°22' E 002°10'0 0.0
2018-Feb-13 09:30N 41°22' E 002°10'0 0.0
2018-Feb-13 09:00N 41°22' E 002°10'0 0.0
2018-Feb-13 08:30N 41°22' E 002°10'0 0.0
2018-Feb-13 08:00N 41°22' E 002°10'0 0.0
2018-Feb-13 07:18N 41°22' E 002°10'0 0.0
2018-Feb-13 06:57N 41°22' E 002°10'0 0.0
2018-Feb-13 06:30N 41°22' E 002°10'0 0.0
2018-Feb-13 06:00N 41°22' E 002°10'0 0.0
2018-Feb-13 05:30N 41°22' E 002°10'0 0.0
2018-Feb-13 05:00N 41°22' E 002°10'0 0.0
2018-Feb-13 04:30N 41°22' E 002°10'0 0.0
2018-Feb-13 04:00N 41°22' E 002°10'0 0.0
2018-Feb-13 03:30N 41°22' E 002°10'0 0.0
2018-Feb-13 03:00N 41°22' E 002°10'0 0.0
2018-Feb-13 02:30N 41°22' E 002°10'0 0.0
2018-Feb-13 02:00N 41°22' E 002°10'0 0.0
2018-Feb-13 01:30N 41°22' E 002°10'0 0.0
2018-Feb-13 01:00N 41°22' E 002°10'0 0.0
2018-Feb-13 00:30N 41°22' E 002°10'0 0.0
2018-Feb-13 00:00N 41°22' E 002°10'0 0.0
2018-Feb-12 23:30N 41°22' E 002°10'0 0.0
2018-Feb-12 23:00N 41°22' E 002°10'0 0.0
2018-Feb-12 22:30N 41°22' E 002°10'0 0.0
2018-Feb-12 22:00N 41°22' E 002°10'0 0.0
2018-Feb-12 21:30N 41°22' E 002°10'0 0.0
2018-Feb-12 21:00N 41°22' E 002°10'0 0.0
2018-Feb-12 20:30N 41°22' E 002°10'0 0.0
2018-Feb-12 20:00N 41°22' E 002°10'0 0.0
2018-Feb-12 19:30N 41°22' E 002°10'0 0.0
2018-Feb-12 19:00N 41°22' E 002°10'0 0.0
2018-Feb-12 18:30N 41°22' E 002°10'0 0.0
2018-Feb-12 18:00N 41°22' E 002°10'0 0.0
2018-Feb-12 17:30N 41°22' E 002°10'0 0.0
2018-Feb-12 17:00N 41°22' E 002°10'0 0.0
2018-Feb-12 16:30N 41°22' E 002°10'0 0.0
2018-Feb-12 16:00N 41°22' E 002°10'0 0.0
2018-Feb-12 15:09N 41°22' E 002°10'0 0.0
2018-Feb-12 15:00N 41°22' E 002°10'0 0.0
2018-Feb-12 14:30N 41°22' E 002°10'0 0.0
2018-Feb-12 14:00N 41°22' E 002°10'0 0.0
2018-Feb-12 13:30N 41°22' E 002°10'0 0.0
2018-Feb-12 13:00N 41°22' E 002°10'0 0.0
2018-Feb-12 12:30N 41°22' E 002°10'0 0.0
2018-Feb-12 12:00N 41°22' E 002°10'0 0.0
2018-Feb-12 11:30N 41°22' E 002°10'0 0.0
2018-Feb-12 11:00N 41°22' E 002°10'0 0.0
2018-Feb-12 10:30N 41°22' E 002°10'0 0.0
2018-Feb-12 10:00N 41°22' E 002°10'0 0.0
2018-Feb-12 09:30N 41°22' E 002°10'0 0.0
2018-Feb-12 08:57N 41°22' E 002°10'0 0.0
2018-Feb-12 08:27N 41°22' E 002°10'0 0.0
2018-Feb-12 07:57N 41°22' E 002°10'0 0.0
2018-Feb-12 07:27N 41°22' E 002°10'0 0.0
2018-Feb-12 06:57N 41°22' E 002°10'0 0.0
2018-Feb-12 04:33N 41°22' E 002°10'0 0.0
2018-Feb-12 04:09N 41°22' E 002°10'0 0.0
2018-Feb-12 03:57N 41°22' E 002°10'0 0.0
2018-Feb-12 03:30N 41°22' E 002°10'0 0.0
2018-Feb-12 03:00N 41°22' E 002°10'0 0.0
2018-Feb-12 02:27N 41°22' E 002°10'0 0.0
2018-Feb-12 02:00N 41°22' E 002°10'0 0.0
2018-Feb-12 01:30N 41°22' E 002°10'0 0.0
2018-Feb-12 01:00N 41°22' E 002°10'0 0.0
2018-Feb-12 00:27N 41°22' E 002°10'0 0.0
2018-Feb-12 00:00N 41°22' E 002°10'0 0.0
2018-Feb-11 23:27N 41°22' E 002°10'0 0.0
2018-Feb-11 23:00N 41°22' E 002°10'0 0.0
2018-Feb-11 22:30N 41°22' E 002°10'0 0.0
2018-Feb-11 21:57N 41°22' E 002°10'0 0.0
2018-Feb-11 21:30N 41°22' E 002°10'0 0.0
2018-Feb-11 21:00N 41°22' E 002°10'0 0.0
2018-Feb-11 20:00N 41°22' E 002°10'0 0.0
2018-Feb-11 19:21N 41°22' E 002°10'0 0.0
2018-Feb-11 18:57N 41°22' E 002°10'0 0.0
2018-Feb-11 18:30N 41°22' E 002°10'0 0.0
2018-Feb-11 18:00N 41°22' E 002°10'0 0.0
2018-Feb-11 17:27N 41°22' E 002°10'0 0.0
2018-Feb-11 17:00N 41°22' E 002°10'0 0.0
2018-Feb-11 16:30N 41°22' E 002°10'0 0.0
2018-Feb-11 15:57N 41°22' E 002°10'0 0.0
2018-Feb-11 15:30N 41°22' E 002°10'0 0.0
2018-Feb-11 15:00N 41°22' E 002°10'0 0.0
2018-Feb-11 14:30N 41°22' E 002°10'0 0.0
2018-Feb-11 14:00N 41°22' E 002°10'0 0.0
2018-Feb-11 13:30N 41°22' E 002°10'0 0.0
2018-Feb-11 12:57N 41°22' E 002°10'0 0.0
2018-Feb-11 12:18N 41°22' E 002°10'0 0.0
2018-Feb-11 12:00N 41°22' E 002°10'0 0.0
2018-Feb-11 11:30N 41°22' E 002°10'0 0.1
2018-Feb-11 11:00N 41°22' E 002°10'3 5.6
2018-Feb-11 10:30N 41°19' E 002°10'3 6.5
2018-Feb-11 10:00N 41°16' E 002°12'5 9.6
2018-Feb-11 09:30N 41°12' E 002°17'5 9.9
2018-Feb-11 09:00N 41°08' E 002°21'  

Dump ship's entire track history